createdAt,value
2022-07-27T00:00:19.507Z,99494.66
2022-07-27T00:03:22.638Z,99494.91
2022-07-27T00:06:25.033Z,99495.19
2022-07-27T00:09:26.808Z,99493.81
2022-07-27T00:12:28.567Z,99492.75
2022-07-27T00:15:30.685Z,99487.41
2022-07-27T00:18:32.656Z,99480.47
2022-07-27T00:21:34.355Z,99475.66
2022-07-27T00:24:39.310Z,99477.81
2022-07-27T00:27:41.093Z,99475.38
2022-07-27T00:30:43.006Z,99478.03
2022-07-27T00:33:44.887Z,99477.22
2022-07-27T00:36:46.650Z,99465.50
2022-07-27T00:39:49.749Z,99470.31
2022-07-27T00:42:51.620Z,99468.97
2022-07-27T00:45:53.465Z,99461.47
2022-07-27T00:48:55.536Z,99460.72
2022-07-27T00:51:57.322Z,99461.25
2022-07-27T00:54:59.471Z,99463.13
2022-07-27T00:58:01.567Z,99455.41
2022-07-27T01:01:03.594Z,99447.38
2022-07-27T01:04:05.888Z,99448.97
2022-07-27T01:07:09.103Z,99443.59
2022-07-27T01:10:10.835Z,99433.44
2022-07-27T01:13:13.528Z,99437.97
2022-07-27T01:16:15.694Z,99435.03
2022-07-27T01:19:18.645Z,99443.88
2022-07-27T01:22:20.390Z,99443.59
2022-07-27T01:25:22.494Z,99443.13
2022-07-27T01:28:24.474Z,99439.72
2022-07-27T01:31:27.728Z,99440.78
2022-07-27T01:34:29.539Z,99451.72
2022-07-27T01:37:31.424Z,99449.56
2022-07-27T01:40:34.099Z,99443.72
2022-07-27T01:43:35.711Z,99435.16
2022-07-27T01:46:37.563Z,99439.72
2022-07-27T01:49:39.327Z,99430.91
2022-07-27T01:52:41.018Z,99433.84
2022-07-27T01:55:42.839Z,99433.03
2022-07-27T01:58:44.527Z,99429.31
2022-07-27T02:01:46.301Z,99436.78
2022-07-27T02:04:48.137Z,99430.38
2022-07-27T02:07:49.986Z,99428.75
2022-07-27T02:11:10.152Z,99429.56
2022-07-27T02:14:12.079Z,99423.69
2022-07-27T02:17:13.806Z,99421.28
2022-07-27T02:20:19.320Z,99423.41
2022-07-27T02:23:21.028Z,99422.03
2022-07-27T02:26:22.712Z,99416.47
2022-07-27T02:29:24.386Z,99415.13
2022-07-27T02:32:26.165Z,99410.06
2022-07-27T02:35:27.903Z,99409.50
2022-07-27T02:38:29.608Z,99406.31
2022-07-27T02:41:31.318Z,99417.50
2022-07-27T02:44:32.990Z,99409.22
2022-07-27T02:47:36.724Z,99410.78
2022-07-27T02:50:38.606Z,99406.25
2022-07-27T02:53:40.485Z,99407.31
2022-07-27T02:56:42.159Z,99404.63
2022-07-27T02:59:43.827Z,99400.34
2022-07-27T03:02:49.267Z,99403.53
2022-07-27T03:05:51.006Z,99406.19
2022-07-27T03:08:52.711Z,99406.47
2022-07-27T03:11:54.417Z,99411.22
2022-07-27T03:14:56.969Z,99403.53
2022-07-27T03:17:58.664Z,99408.84
2022-07-27T03:21:00.347Z,99401.38
2022-07-27T03:24:02.016Z,99404.31
2022-07-27T03:27:03.835Z,99402.69
2022-07-27T03:30:06.627Z,99397.34
2022-07-27T03:33:08.365Z,99399.50
2022-07-27T03:36:10.142Z,99405.13
2022-07-27T03:39:13.599Z,99407.50
2022-07-27T03:42:15.807Z,99400.00
2022-07-27T03:45:17.525Z,99408.00
2022-07-27T03:48:19.178Z,99410.66
2022-07-27T03:51:21.856Z,99405.63
2022-07-27T03:54:23.390Z,99400.31
2022-07-27T03:57:25.490Z,99393.38
2022-07-27T04:00:27.279Z,99394.16
2022-07-27T04:03:28.991Z,99397.34
2022-07-27T04:06:30.707Z,99396.53
2022-07-27T04:09:32.375Z,99402.16
2022-07-27T04:12:36.871Z,99392.31
2022-07-27T04:15:38.718Z,99400.34
2022-07-27T04:18:40.429Z,99393.16
2022-07-27T04:21:42.190Z,99404.63
2022-07-27T04:24:43.859Z,99403.59
2022-07-27T04:27:45.605Z,99402.53
2022-07-27T04:30:47.352Z,99402.81
2022-07-27T04:33:49.558Z,99402.59
2022-07-27T04:36:51.415Z,99402.59
2022-07-27T04:39:57.622Z,99398.34
2022-07-27T04:43:00.737Z,99388.47
2022-07-27T04:46:04.688Z,99395.13
2022-07-27T04:49:06.590Z,99394.38
2022-07-27T04:52:08.330Z,99405.81
2022-07-27T04:55:10.346Z,99397.81
2022-07-27T04:58:13.431Z,99393.31
2022-07-27T05:01:15.170Z,99390.66
2022-07-27T05:04:16.938Z,99393.06
2022-07-27T05:07:18.670Z,99397.59
2022-07-27T05:10:20.972Z,99395.72
2022-07-27T05:13:22.813Z,99397.31
2022-07-27T05:16:28.530Z,99398.63
2022-07-27T05:19:40.527Z,99389.22
2022-07-27T05:22:42.710Z,99397.69
2022-07-27T05:25:44.485Z,99397.34
2022-07-27T05:28:46.238Z,99403.16
2022-07-27T05:31:48.102Z,99404.97
2022-07-27T05:34:49.960Z,99398.97
2022-07-27T05:37:51.744Z,99398.94
2022-07-27T05:40:53.552Z,99400.44
2022-07-27T05:43:55.448Z,99395.81
2022-07-27T05:46:57.210Z,99393.34
2022-07-27T05:49:58.929Z,99399.66
2022-07-27T05:53:01.111Z,99400.63
2022-07-27T05:56:02.820Z,99395.69
2022-07-27T05:59:07.350Z,99396.94
2022-07-27T06:02:09.295Z,99395.88
2022-07-27T06:05:15.922Z,99393.00
2022-07-27T06:08:19.683Z,99397.44
2022-07-27T06:11:21.483Z,99394.00
2022-07-27T06:14:23.172Z,99396.41
2022-07-27T06:17:24.934Z,99392.34
2022-07-27T06:20:27.545Z,99393.44
2022-07-27T06:23:29.618Z,99395.03
2022-07-27T06:26:31.316Z,99394.19
2022-07-27T06:29:34.882Z,99395.78
2022-07-27T06:32:36.846Z,99393.50
2022-07-27T06:35:40.493Z,99399.34
2022-07-27T06:38:42.922Z,99397.94
2022-07-27T06:41:45.012Z,99397.88
2022-07-27T06:44:48.122Z,99400.81
2022-07-27T06:47:51.201Z,99403.53
2022-07-27T06:50:53.656Z,99409.06
2022-07-27T06:53:55.805Z,99397.88
2022-07-27T06:56:57.520Z,99412.88
2022-07-27T06:59:59.293Z,99406.75
2022-07-27T07:03:03.631Z,99403.06
2022-07-27T07:06:05.432Z,99405.25
2022-07-27T07:09:07.152Z,99403.97
2022-07-27T07:12:10.896Z,99400.94
2022-07-27T07:15:13.371Z,99402.91
2022-07-27T07:18:15.241Z,99400.31
2022-07-27T07:21:17.297Z,99412.88
2022-07-27T07:24:19.666Z,99408.72
2022-07-27T07:27:23.505Z,99409.16
2022-07-27T07:30:25.499Z,99414.06
2022-07-27T07:33:27.883Z,99403.63
2022-07-27T07:36:29.833Z,99411.47
2022-07-27T07:39:31.829Z,99414.56
2022-07-27T07:42:51.338Z,99415.66
2022-07-27T07:45:53.047Z,99414.88
2022-07-27T07:48:54.864Z,99417.91
2022-07-27T07:51:56.816Z,99419.94
2022-07-27T07:54:58.567Z,99421.13
2022-07-27T07:58:01.459Z,99424.28
2022-07-27T08:01:03.252Z,99423.94
2022-07-27T08:04:05.157Z,99418.81
2022-07-27T08:07:07.732Z,99424.38
2022-07-27T08:10:10.661Z,99418.34
2022-07-27T08:13:12.432Z,99414.66
2022-07-27T08:16:14.498Z,99414.19
2022-07-27T08:19:16.409Z,99419.09
2022-07-27T08:22:18.087Z,99425.56
2022-07-27T08:25:19.822Z,99419.72
2022-07-27T08:28:21.571Z,99420.31
2022-07-27T08:31:26.574Z,99426.28
2022-07-27T08:34:45.345Z,99419.78
2022-07-27T08:37:47.242Z,99424.75
2022-07-27T08:40:50.467Z,99424.41
2022-07-27T08:43:52.957Z,99425.72
2022-07-27T08:46:56.096Z,99425.38
2022-07-27T08:49:57.984Z,99424.66
2022-07-27T08:53:05.563Z,99417.97
2022-07-27T08:56:07.357Z,99418.56
2022-07-27T08:59:09.710Z,99421.81
2022-07-27T09:02:13.902Z,99428.56
2022-07-27T09:05:16.369Z,99424.81
2022-07-27T09:08:24.682Z,99416.44
2022-07-27T09:11:26.618Z,99420.59
2022-07-27T09:14:33.716Z,99411.28
2022-07-27T09:17:48.570Z,99406.09
2022-07-27T09:21:21.041Z,99412.00
2022-07-27T09:24:45.602Z,99402.63
2022-07-27T09:27:45.997Z,99405.19
2022-07-27T09:30:47.767Z,99400.75
2022-07-27T09:33:51.775Z,99401.44
2022-07-27T09:36:57.224Z,99400.00
2022-07-27T09:40:24.477Z,99392.47
2022-07-27T09:44:27.735Z,99392.66
2022-07-27T09:46:50.575Z,99395.25
2022-07-27T09:49:53.292Z,99387.25
2022-07-27T09:53:41.419Z,99380.59
2022-07-27T09:56:34.765Z,99383.44
2022-07-27T09:59:36.681Z,99381.69
2022-07-27T10:02:39.358Z,99388.38
2022-07-27T10:05:41.141Z,99372.00
2022-07-27T10:08:46.356Z,99375.34
2022-07-27T10:11:49.400Z,99377.06
2022-07-27T10:14:51.106Z,99373.22
2022-07-27T10:18:09.180Z,99370.84
2022-07-27T10:21:11.771Z,99372.50
2022-07-27T10:24:34.868Z,99371.03
2022-07-27T10:27:36.555Z,99370.72
2022-07-27T10:30:40.144Z,99368.47
2022-07-27T10:33:46.366Z,99371.03
2022-07-27T10:36:51.024Z,99355.56
2022-07-27T10:40:14.203Z,99352.59
2022-07-27T10:43:20.753Z,99353.19
2022-07-27T10:46:22.640Z,99355.75
2022-07-27T10:49:40.351Z,99353.59
2022-07-27T10:52:53.511Z,99345.56
2022-07-27T10:55:55.256Z,99355.78
2022-07-27T10:58:56.963Z,99351.47
2022-07-27T11:01:58.893Z,99350.47
2022-07-27T11:05:00.671Z,99349.22
2022-07-27T11:08:35.353Z,99337.19
2022-07-27T11:11:25.331Z,99333.16
2022-07-27T11:14:31.315Z,99340.78
2022-07-27T11:21:26.080Z,99341.91
2022-07-27T11:24:29.003Z,99342.25
2022-07-27T11:27:31.019Z,99339.03
2022-07-27T11:30:32.618Z,99339.78
2022-07-27T11:33:35.017Z,99344.09
2022-07-27T11:36:46.731Z,99333.78
2022-07-27T11:40:20.237Z,99329.06
2022-07-27T11:43:10.419Z,99331.06
2022-07-27T11:46:26.188Z,99343.59
2022-07-27T11:49:30.259Z,99352.50
2022-07-27T11:52:32.164Z,99339.19
2022-07-27T11:55:48.149Z,99337.84
2022-07-27T11:59:04.747Z,99333.50
2022-07-27T12:02:08.470Z,99330.47
2022-07-27T12:05:11.285Z,99321.78
2022-07-27T12:08:13.130Z,99315.94
2022-07-27T12:11:16.582Z,99315.16
2022-07-27T12:14:18.363Z,99317.88
2022-07-27T12:17:31.912Z,99321.91
2022-07-27T12:20:35.251Z,99318.81
2022-07-27T12:23:52.674Z,99311.91
2022-07-27T12:27:06.682Z,99303.97
2022-07-27T12:30:11.324Z,99306.22
2022-07-27T12:33:31.068Z,99302.56
2022-07-27T12:36:33.427Z,99305.03
2022-07-27T12:39:35.179Z,99301.53
2022-07-27T12:42:37.781Z,99301.50
2022-07-27T12:45:39.747Z,99308.91
2022-07-27T12:48:42.001Z,99320.41
2022-07-27T12:51:43.879Z,99314.34
2022-07-27T12:54:45.503Z,99306.56
2022-07-27T12:57:56.529Z,99315.34
2022-07-27T13:00:59.029Z,99315.41
2022-07-27T13:04:01.119Z,99311.09
2022-07-27T13:07:02.741Z,99313.78
2022-07-27T13:10:08.096Z,99310.78
2022-07-27T13:13:09.956Z,99305.84
2022-07-27T13:16:11.613Z,99308.84
2022-07-27T13:19:16.594Z,99308.34
2022-07-27T13:22:18.539Z,99299.72
2022-07-27T13:25:20.632Z,99302.72
2022-07-27T13:28:22.468Z,99297.97
2022-07-27T13:31:24.310Z,99299.56
2022-07-27T13:34:25.943Z,99296.94
2022-07-27T13:37:28.056Z,99299.81
2022-07-27T13:40:29.755Z,99297.53
2022-07-27T13:43:31.492Z,99294.44
2022-07-27T13:46:33.750Z,99295.38
2022-07-27T13:49:35.486Z,99295.56
2022-07-27T13:52:37.240Z,99297.78
2022-07-27T13:55:39.037Z,99295.31
2022-07-27T13:58:41.177Z,99294.31
2022-07-27T14:01:42.967Z,99297.44
2022-07-27T14:04:44.830Z,99285.47
2022-07-27T14:07:46.699Z,99287.25
2022-07-27T14:10:48.751Z,99290.53
2022-07-27T14:13:53.080Z,99281.75
2022-07-27T14:16:54.859Z,99285.44
2022-07-27T14:19:56.617Z,99282.09
2022-07-27T14:22:58.534Z,99278.72
2022-07-27T14:26:01.106Z,99272.41
2022-07-27T14:29:02.830Z,99276.56
2022-07-27T14:32:05.657Z,99274.44
2022-07-27T14:35:08.277Z,99274.31
2022-07-27T14:38:11.018Z,99265.38
2022-07-27T14:41:12.719Z,99272.38
2022-07-27T14:44:14.459Z,99267.81
2022-07-27T14:47:20.517Z,99271.84
2022-07-27T14:50:22.215Z,99259.91
2022-07-27T14:53:23.956Z,99265.47
2022-07-27T14:56:25.647Z,99255.56
2022-07-27T14:59:27.535Z,99246.53
2022-07-27T15:02:29.269Z,99240.31
2022-07-27T15:05:31.605Z,99244.59
2022-07-27T15:08:34.578Z,99248.22
2022-07-27T15:11:37.748Z,99239.19
2022-07-27T15:14:39.778Z,99237.59
2022-07-27T15:17:41.704Z,99240.09
2022-07-27T15:20:43.306Z,99238.88
2022-07-27T15:23:45.090Z,99237.63
2022-07-27T15:26:46.825Z,99236.69
2022-07-27T15:29:48.934Z,99236.63
2022-07-27T15:32:50.596Z,99225.47
2022-07-27T15:35:52.363Z,99231.34
2022-07-27T15:38:54.171Z,99231.38
2022-07-27T15:41:55.843Z,99219.81
2022-07-27T15:44:57.537Z,99226.88
2022-07-27T15:48:01.306Z,99221.38
2022-07-27T15:51:03.400Z,99217.00
2022-07-27T15:54:05.097Z,99211.38
2022-07-27T15:57:09.650Z,99212.00
2022-07-27T16:00:12.515Z,99213.66
2022-07-27T16:03:14.885Z,99219.03
2022-07-27T16:06:19.259Z,99214.63
2022-07-27T16:09:22.052Z,99210.44
2022-07-27T16:12:23.777Z,99199.88
2022-07-27T16:15:45.527Z,99202.63
2022-07-27T16:18:48.162Z,99196.84
2022-07-27T16:21:54.329Z,99202.97
2022-07-27T16:24:57.753Z,99201.50
2022-07-27T16:27:59.483Z,99198.56
2022-07-27T16:31:01.791Z,99191.78
2022-07-27T16:34:03.675Z,99193.03
2022-07-27T16:37:05.495Z,99186.25
2022-07-27T16:40:07.668Z,99188.50
2022-07-27T16:43:09.399Z,99182.06
2022-07-27T16:46:11.165Z,99188.53
2022-07-27T16:49:14.044Z,99195.53
2022-07-27T16:52:16.137Z,99183.31
2022-07-27T16:55:17.931Z,99183.59
2022-07-27T16:58:19.691Z,99187.75
2022-07-27T17:01:22.061Z,99184.97
2022-07-27T17:04:28.382Z,99186.66
2022-07-27T17:07:30.171Z,99190.16
2022-07-27T17:10:32.484Z,99191.44
2022-07-27T17:13:36.630Z,99187.53
2022-07-27T17:16:38.340Z,99185.06
2022-07-27T17:19:40.249Z,99184.38
2022-07-27T17:22:42.394Z,99177.75
2022-07-27T17:25:44.383Z,99179.22
2022-07-27T17:28:46.003Z,99188.59
2022-07-27T17:31:47.762Z,99183.25
2022-07-27T17:34:49.553Z,99174.06
2022-07-27T17:38:06.309Z,99190.00
2022-07-27T17:41:08.750Z,99189.22
2022-07-27T17:44:10.594Z,99179.72
2022-07-27T17:47:12.301Z,99181.47
2022-07-27T17:50:14.056Z,99194.34
2022-07-27T17:53:15.775Z,99186.91
2022-07-27T17:56:17.474Z,99181.19
2022-07-27T18:02:40.905Z,99188.16
2022-07-27T18:05:44.081Z,99188.94
2022-07-27T18:08:46.651Z,99186.72
2022-07-27T18:11:48.363Z,99192.59
2022-07-27T18:15:08.736Z,99189.59
2022-07-27T18:18:10.722Z,99197.50
2022-07-27T18:21:13.350Z,99192.09
2022-07-27T18:24:15.566Z,99195.28
2022-07-27T18:27:17.117Z,99196.25
2022-07-27T18:30:19.395Z,99191.94
2022-07-27T18:33:22.141Z,99196.88
2022-07-27T18:36:23.937Z,99194.63
2022-07-27T18:39:33.621Z,99190.69
2022-07-27T18:42:36.877Z,99194.78
2022-07-27T18:45:39.326Z,99190.34
2022-07-27T18:48:41.092Z,99190.16
2022-07-27T18:51:42.832Z,99182.41
2022-07-27T18:54:44.611Z,99186.31
2022-07-27T18:57:46.355Z,99178.41
2022-07-27T19:00:48.874Z,99185.00
2022-07-27T19:03:51.799Z,99187.34
2022-07-27T19:06:54.135Z,99185.28
2022-07-27T19:09:55.976Z,99184.31
2022-07-27T19:12:57.664Z,99187.44
2022-07-27T19:16:00.886Z,99185.41
2022-07-27T19:19:03.151Z,99191.22
2022-07-27T19:22:04.789Z,99193.25
2022-07-27T19:25:07.934Z,99193.69
2022-07-27T19:28:09.702Z,99193.31
2022-07-27T19:31:23.460Z,99199.16
2022-07-27T19:34:25.529Z,99203.19
2022-07-27T19:37:29.787Z,99205.81
2022-07-27T19:40:46.937Z,99200.75
2022-07-27T19:43:49.010Z,99198.38
2022-07-27T19:46:50.723Z,99211.00
2022-07-27T19:49:52.764Z,99206.06
2022-07-27T19:52:54.524Z,99202.38
2022-07-27T19:55:56.435Z,99207.03
2022-07-27T19:58:58.181Z,99204.41
2022-07-27T20:02:00.065Z,99213.56
2022-07-27T20:05:02.013Z,99214.06
2022-07-27T20:08:04.284Z,99221.84
2022-07-27T20:11:06.551Z,99219.44
2022-07-27T20:14:08.263Z,99221.34
2022-07-27T20:17:10.020Z,99224.53
2022-07-27T20:20:12.280Z,99226.13
2022-07-27T20:23:14.037Z,99223.81
2022-07-27T20:26:15.769Z,99222.91
2022-07-27T20:29:17.499Z,99224.13
2022-07-27T20:32:19.241Z,99220.94
2022-07-27T20:35:21.259Z,99219.88
2022-07-27T20:38:23.011Z,99220.66
2022-07-27T20:41:24.809Z,99220.56
2022-07-27T20:44:27.662Z,99222.09
2022-07-27T20:47:34.375Z,99217.81
2022-07-27T20:50:36.533Z,99229.13
2022-07-27T20:53:39.476Z,99224.44
2022-07-27T20:56:41.187Z,99228.03
2022-07-27T20:59:42.887Z,99224.97
2022-07-27T21:02:44.686Z,99230.69
2022-07-27T21:05:46.482Z,99220.16
2022-07-27T21:08:48.810Z,99215.59
2022-07-27T21:11:50.517Z,99228.16
2022-07-27T21:14:52.300Z,99223.78
2022-07-27T21:17:54.016Z,99225.75
2022-07-27T21:20:55.785Z,99221.06
2022-07-27T21:24:17.307Z,99215.19
2022-07-27T21:27:21.155Z,99218.78
2022-07-27T21:30:23.195Z,99215.50
2022-07-27T21:33:24.932Z,99216.03
2022-07-27T21:36:26.794Z,99217.97
2022-07-27T21:39:29.582Z,99217.38
2022-07-27T21:42:33.111Z,99228.63
2022-07-27T21:45:34.919Z,99232.22
2022-07-27T21:48:36.738Z,99231.00
2022-07-27T21:51:38.659Z,99230.31
2022-07-27T21:54:40.520Z,99228.13
2022-07-27T21:57:42.234Z,99232.72
2022-07-27T22:00:44.026Z,99245.22
2022-07-27T22:03:46.028Z,99243.22
2022-07-27T22:06:47.830Z,99246.13
2022-07-27T22:09:49.486Z,99244.53
2022-07-27T22:12:51.258Z,99252.69
2022-07-27T22:15:53.637Z,99256.25
2022-07-27T22:18:56.786Z,99252.16
2022-07-27T22:21:58.476Z,99250.00
2022-07-27T22:25:00.356Z,99249.78
2022-07-27T22:28:02.183Z,99254.72
2022-07-27T22:31:21.621Z,99264.66
2022-07-27T22:34:24.645Z,99256.84
2022-07-27T22:37:26.612Z,99248.78
2022-07-27T22:40:28.319Z,99252.34
2022-07-27T22:43:30.336Z,99248.34
2022-07-27T22:46:32.502Z,99257.59
2022-07-27T22:49:37.589Z,99248.25
2022-07-27T22:52:40.005Z,99244.75
2022-07-27T22:55:41.765Z,99243.56
2022-07-27T22:58:43.462Z,99241.31
2022-07-27T23:01:47.431Z,99235.84
2022-07-27T23:04:50.123Z,99242.22
2022-07-27T23:07:52.166Z,99237.84
2022-07-27T23:10:53.886Z,99236.84
2022-07-27T23:13:55.640Z,99230.97
2022-07-27T23:16:57.979Z,99231.06
2022-07-27T23:19:59.703Z,99227.69
2022-07-27T23:23:01.493Z,99226.31
2022-07-27T23:26:04.503Z,99223.91
2022-07-27T23:29:08.250Z,99224.22
2022-07-27T23:32:11.045Z,99216.75
2022-07-27T23:35:12.889Z,99223.22
2022-07-27T23:38:14.596Z,99212.19
2022-07-27T23:41:17.086Z,99209.72
2022-07-27T23:44:19.046Z,99206.66
2022-07-27T23:47:20.903Z,99203.09
2022-07-27T23:50:22.715Z,99207.66
2022-07-27T23:53:24.516Z,99209.66
2022-07-27T23:56:26.300Z,99206.38
2022-07-27T23:59:28.017Z,99210.06
